首页
METAR-TAF:

METAR-TAF

机场 :

Kinston Regional Jetport at Stallings Field

金斯顿, 北卡罗来纳州, 美国

纬度: 35-20N, 经度: 077-37W, 海拔: 29米

当前天气观测

该预报发布于14分钟前的09:40 UTC
风速3节,风向西北
温度 25°C
湿度 89%
气压 1020 hPa
能見度: 16.1公里
阴天层高于1200英尺

METAR: KISO 260940Z AUTO 31003KT 10SM OVC012 25/23 A3011 RMK AO2 T02480226

时间: 05:54 (09:54 UTC)

预报

该预报发布于4小时和33分钟前的05:21 UTC
预报有效从26日的 06点(UTC)到 27日的 06点(UTC)
风速6节,风向
能見度: 10公里
多云层高于1500英尺
从 26日的 1200点(UTC)
风速7节,风向西南
能見度: 10公里
散云层高于25000英尺
从 26日的 1800点(UTC)
风速8节,风向西,有时为13节阵风
能見度: 10公里
少量云层高于25000英尺
从 26日的 2200点(UTC)
风速7节,风向西
能見度: 10公里
少量云层高于25000英尺

TAF: KISO 260521Z 2606/2706 18006KT P6SM BKN015 FM261200 23007KT P6SM SCT250 FM261800 28008G13KT P6SM FEW250 FM262200 28007KT P6SM FEW250 AMD LTD TO CLD VIS AND WIND

超过4000个机场的气象观测和天气预报(METAR&TAF报告)。

可查询的气象台以黄色和红色小点在地图上表示。

将鼠标移到小点上方,可查看气象台名称。

然后点击查看天气观测和预报。

如需切换地图:点击带黑十字的绿色按钮放大地图;点击带横线的绿色按钮缩小地图;或者点击绿色箭头查看邻近地区的地图。


METAR-TAF: